sensor_id;sensor_type;location;lat;lon;timestamp;pressure;altitude;pressure_sealevel;temperature;humidity
40850;BME280;26571;41.610;25.380;2023-09-12T00:00:05;98520.28;;;16.72;54.67
40850;BME280;26571;41.610;25.380;2023-09-12T00:02:30;98520.22;;;16.66;55.27
40850;BME280;26571;41.610;25.380;2023-09-12T00:04:56;98526.78;;;16.57;56.29
40850;BME280;26571;41.610;25.380;2023-09-12T00:07:21;98477.25;;;16.29;56.52
40850;BME280;26571;41.610;25.380;2023-09-12T00:09:47;98523.09;;;16.51;56.64
40850;BME280;26571;41.610;25.380;2023-09-12T00:12:14;98504.63;;;16.29;57.00
40850;BME280;26571;41.610;25.380;2023-09-12T00:14:40;98529.78;;;16.27;57.66
40850;BME280;26571;41.610;25.380;2023-09-12T00:17:05;98523.00;;;16.18;57.60
40850;BME280;26571;41.610;25.380;2023-09-12T00:19:31;98534.88;;;16.22;57.36
40850;BME280;26571;41.610;25.380;2023-09-12T00:21:56;98524.63;;;16.12;58.31
40850;BME280;26571;41.610;25.380;2023-09-12T00:24:22;98528.31;;;16.18;57.31
40850;BME280;26571;41.610;25.380;2023-09-12T00:26:47;98535.47;;;16.17;57.04
40850;BME280;26571;41.610;25.380;2023-09-12T00:29:13;98526.69;;;16.17;57.12
40850;BME280;26571;41.610;25.380;2023-09-12T00:31:38;98533.84;;;16.16;57.03
40850;BME280;26571;41.610;25.380;2023-09-12T00:34:03;98528.31;;;16.11;57.14
40850;BME280;26571;41.610;25.380;2023-09-12T00:36:29;98534.44;;;16.12;57.39
40850;BME280;26571;41.610;25.380;2023-09-12T00:38:54;98532.38;;;16.07;57.91
40850;BME280;26571;41.610;25.380;2023-09-12T00:41:20;98529.88;;;15.99;58.45
40850;BME280;26571;41.610;25.380;2023-09-12T00:43:45;98535.19;;;15.99;58.44
40850;BME280;26571;41.610;25.380;2023-09-12T00:46:13;98531.53;;;16.00;58.63
40850;BME280;26571;41.610;25.380;2023-09-12T00:48:43;98533.38;;;16.06;58.00
40850;BME280;26571;41.610;25.380;2023-09-12T00:51:08;98530.69;;;15.99;58.59
40850;BME280;26571;41.610;25.380;2023-09-12T00:53:34;98502.88;;;15.82;57.62
40850;BME280;26571;41.610;25.380;2023-09-12T00:56:01;98536.44;;;15.96;57.50
40850;BME280;26571;41.610;25.380;2023-09-12T00:58:27;98531.94;;;16.03;57.17
40850;BME280;26571;41.610;25.380;2023-09-12T01:00:53;98539.47;;;15.93;57.68
40850;BME280;26571;41.610;25.380;2023-09-12T01:03:18;98541.75;;;15.96;57.63
40850;BME280;26571;41.610;25.380;2023-09-12T01:05:44;98516.69;;;15.71;58.42
40850;BME280;26571;41.610;25.380;2023-09-12T01:08:11;98527.34;;;15.77;59.53
40850;BME280;26571;41.610;25.380;2023-09-12T01:10:36;98534.59;;;15.62;59.94
40850;BME280;26571;41.610;25.380;2023-09-12T01:13:02;98515.72;;;15.44;59.60
40850;BME280;26571;41.610;25.380;2023-09-12T01:15:28;98546.16;;;15.55;59.88
40850;BME280;26571;41.610;25.380;2023-09-12T01:17:53;98548.44;;;15.58;59.30
40850;BME280;26571;41.610;25.380;2023-09-12T01:20:24;98513.63;;;15.39;59.25
40850;BME280;26571;41.610;25.380;2023-09-12T01:23:30;98540.72;;;15.63;58.86
40850;BME280;26571;41.610;25.380;2023-09-12T01:26:23;98545.28;;;15.69;58.50
40850;BME280;26571;41.610;25.380;2023-09-12T01:28:55;98546.66;;;15.65;58.73
40850;BME280;26571;41.610;25.380;2023-09-12T01:31:23;98538.63;;;15.51;59.40
40850;BME280;26571;41.610;25.380;2023-09-12T01:33:49;98545.91;;;15.43;59.81
40850;BME280;26571;41.610;25.380;2023-09-12T01:36:19;98556.09;;;15.39;59.82
40850;BME280;26571;41.610;25.380;2023-09-12T01:38:44;98554.44;;;15.38;59.86
40850;BME280;26571;41.610;25.380;2023-09-12T01:41:10;98553.19;;;15.34;59.90
40850;BME280;26571;41.610;25.380;2023-09-12T01:43:36;98552.97;;;15.36;59.97
40850;BME280;26571;41.610;25.380;2023-09-12T01:46:02;98557.47;;;15.35;59.89
40850;BME280;26571;41.610;25.380;2023-09-12T01:48:34;98551.94;;;15.30;59.89
40850;BME280;26571;41.610;25.380;2023-09-12T01:51:01;98551.06;;;15.23;60.21
40850;BME280;26571;41.610;25.380;2023-09-12T01:53:28;98551.84;;;15.17;60.67
40850;BME280;26571;41.610;25.380;2023-09-12T01:55:54;98550.34;;;15.08;60.89
40850;BME280;26571;41.610;25.380;2023-09-12T01:58:21;98549.47;;;15.00;61.23
40850;BME280;26571;41.610;25.380;2023-09-12T02:00:46;98553.13;;;14.99;61.37
40850;BME280;26571;41.610;25.380;2023-09-12T02:03:12;98554.91;;;14.92;61.95
40850;BME280;26571;41.610;25.380;2023-09-12T02:05:38;98547.72;;;14.86;61.95
40850;BME280;26571;41.610;25.380;2023-09-12T02:08:03;98553.25;;;14.91;61.97
40850;BME280;26571;41.610;25.380;2023-09-12T02:10:30;98542.94;;;14.75;62.46
40850;BME280;26571;41.610;25.380;2023-09-12T02:12:56;98520.78;;;14.61;62.08
40850;BME280;26571;41.610;25.380;2023-09-12T02:15:21;98555.25;;;14.83;62.45
40850;BME280;26571;41.610;25.380;2023-09-12T02:17:46;98552.75;;;14.81;62.68
40850;BME280;26571;41.610;25.380;2023-09-12T02:20:15;98556.06;;;14.83;62.34
40850;BME280;26571;41.610;25.380;2023-09-12T02:22:40;98562.19;;;14.84;62.72
40850;BME280;26571;41.610;25.380;2023-09-12T02:25:07;98561.88;;;14.72;62.67
40850;BME280;26571;41.610;25.380;2023-09-12T02:27:33;98527.50;;;14.57;62.60
40850;BME280;26571;41.610;25.380;2023-09-12T02:29:59;98558.88;;;14.60;63.47
40850;BME280;26571;41.610;25.380;2023-09-12T02:32:24;98567.59;;;14.54;63.29
40850;BME280;26571;41.610;25.380;2023-09-12T02:34:50;98563.19;;;14.61;63.19
40850;BME280;26571;41.610;25.380;2023-09-12T02:37:15;98566.38;;;14.57;63.56
40850;BME280;26571;41.610;25.380;2023-09-12T02:39:41;98540.56;;;14.44;63.68
40850;BME280;26571;41.610;25.380;2023-09-12T02:42:06;98566.84;;;14.45;64.50
40850;BME280;26571;41.610;25.380;2023-09-12T02:44:32;98562.94;;;14.41;64.89
40850;BME280;26571;41.610;25.380;2023-09-12T02:46:57;98570.25;;;14.39;64.65
40850;BME280;26571;41.610;25.380;2023-09-12T02:49:22;98568.88;;;14.43;64.38
40850;BME280;26571;41.610;25.380;2023-09-12T02:51:48;98574.47;;;14.48;64.42
40850;BME280;26571;41.610;25.380;2023-09-12T02:54:13;98561.75;;;14.44;64.78
40850;BME280;26571;41.610;25.380;2023-09-12T02:56:39;98566.84;;;14.45;64.81
40850;BME280;26571;41.610;25.380;2023-09-12T02:59:04;98571.81;;;14.48;64.83
40850;BME280;26571;41.610;25.380;2023-09-12T03:01:30;98564.59;;;14.42;64.88
40850;BME280;26571;41.610;25.380;2023-09-12T03:03:56;98578.56;;;14.36;65.13
40850;BME280;26571;41.610;25.380;2023-09-12T03:06:22;98588.09;;;14.31;65.86
40850;BME280;26571;41.610;25.380;2023-09-12T03:08:47;98576.50;;;14.17;65.94
40850;BME280;26571;41.610;25.380;2023-09-12T03:11:13;98572.34;;;14.08;66.33
40850;BME280;26571;41.610;25.380;2023-09-12T03:13:40;98579.91;;;14.11;66.22
40850;BME280;26571;41.610;25.380;2023-09-12T03:16:13;98579.84;;;13.89;66.97
40850;BME280;26571;41.610;25.380;2023-09-12T03:18:38;98570.72;;;13.77;66.72
40850;BME280;26571;41.610;25.380;2023-09-12T03:21:04;98578.03;;;13.90;66.48
40850;BME280;26571;41.610;25.380;2023-09-12T03:23:29;98564.53;;;13.70;67.29
40850;BME280;26571;41.610;25.380;2023-09-12T03:25:55;98580.84;;;13.88;67.09
40850;BME280;26571;41.610;25.380;2023-09-12T03:28:20;98583.50;;;13.88;66.88
40850;BME280;26571;41.610;25.380;2023-09-12T03:30:46;98586.03;;;13.82;67.23
40850;BME280;26571;41.610;25.380;2023-09-12T03:33:12;98583.50;;;13.74;67.74
40850;BME280;26571;41.610;25.380;2023-09-12T03:35:37;98583.50;;;13.74;68.45
40850;BME280;26571;41.610;25.380;2023-09-12T03:38:03;98584.97;;;13.76;67.81
40850;BME280;26571;41.610;25.380;2023-09-12T03:40:29;98584.53;;;13.73;68.18
40850;BME280;26571;41.610;25.380;2023-09-12T03:42:57;98596.00;;;13.65;68.75
40850;BME280;26571;41.610;25.380;2023-09-12T03:45:24;98555.13;;;13.38;68.92
40850;BME280;26571;41.610;25.380;2023-09-12T03:47:49;98593.72;;;13.62;68.82
40850;BME280;26571;41.610;25.380;2023-09-12T03:50:15;98592.06;;;13.61;68.54
40850;BME280;26571;41.610;25.380;2023-09-12T03:52:40;98570.91;;;13.61;68.31
40850;BME280;26571;41.610;25.380;2023-09-12T03:55:06;98593.00;;;13.68;68.71
40850;BME280;26571;41.610;25.380;2023-09-12T03:57:32;98591.53;;;13.80;67.80
40850;BME280;26571;41.610;25.380;2023-09-12T03:59:57;98588.53;;;13.83;67.92
40850;BME280;26571;41.610;25.380;2023-09-12T04:02:23;98569.53;;;13.65;67.88
40850;BME280;26571;41.610;25.380;2023-09-12T04:04:48;98596.63;;;13.96;67.52
40850;BME280;26571;41.610;25.380;2023-09-12T04:07:14;98597.00;;;13.93;68.02
40850;BME280;26571;41.610;25.380;2023-09-12T04:09:39;98607.59;;;13.93;68.90
40850;BME280;26571;41.610;25.380;2023-09-12T04:12:05;98605.22;;;13.99;68.91
40850;BME280;26571;41.610;25.380;2023-09-12T04:14:32;98604.28;;;13.91;68.42
40850;BME280;26571;41.610;25.380;2023-09-12T04:16:57;98608.59;;;13.92;68.65
40850;BME280;26571;41.610;25.380;2023-09-12T04:19:23;98604.56;;;13.82;68.80
40850;BME280;26571;41.610;25.380;2023-09-12T04:21:48;98575.94;;;13.70;68.22
40850;BME280;26571;41.610;25.380;2023-09-12T04:24:14;98596.09;;;13.86;68.19
40850;BME280;26571;41.610;25.380;2023-09-12T04:26:41;98597.81;;;13.94;67.67
40850;BME280;26571;41.610;25.380;2023-09-12T04:29:06;98605.91;;;14.22;67.43
40850;BME280;26571;41.610;25.380;2023-09-12T04:31:31;98603.88;;;14.75;66.98
40850;BME280;26571;41.610;25.380;2023-09-12T04:33:57;98609.09;;;15.95;62.22
40850;BME280;26571;41.610;25.380;2023-09-12T04:36:22;98600.28;;;17.37;56.92
40850;BME280;26571;41.610;25.380;2023-09-12T04:38:48;98604.75;;;18.86;51.33
40850;BME280;26571;41.610;25.380;2023-09-12T04:41:13;98609.34;;;20.34;46.54
40850;BME280;26571;41.610;25.380;2023-09-12T04:43:43;98590.22;;;21.67;43.33
40850;BME280;26571;41.610;25.380;2023-09-12T04:46:10;98604.06;;;23.09;40.00
40850;BME280;26571;41.610;25.380;2023-09-12T04:48:35;98608.22;;;24.28;37.32
40850;BME280;26571;41.610;25.380;2023-09-12T04:51:01;98601.16;;;25.24;35.29
40850;BME280;26571;41.610;25.380;2023-09-12T04:53:26;98610.47;;;26.39;33.41
40850;BME280;26571;41.610;25.380;2023-09-12T04:55:52;98605.56;;;27.29;31.88
40850;BME280;26571;41.610;25.380;2023-09-12T04:58:18;98607.34;;;28.05;30.36
40850;BME280;26571;41.610;25.380;2023-09-12T05:00:43;98607.03;;;28.76;29.29
40850;BME280;26571;41.610;25.380;2023-09-12T05:03:09;98603.50;;;29.54;28.42
40850;BME280;26571;41.610;25.380;2023-09-12T05:05:35;98598.81;;;30.08;27.33
40850;BME280;26571;41.610;25.380;2023-09-12T05:08:03;98590.66;;;30.56;26.53
40850;BME280;26571;41.610;25.380;2023-09-12T05:10:29;98611.16;;;31.05;25.70
40850;BME280;26571;41.610;25.380;2023-09-12T05:12:55;98609.41;;;31.47;25.32
40850;BME280;26571;41.610;25.380;2023-09-12T05:15:20;98607.88;;;31.87;24.62
40850;BME280;26571;41.610;25.380;2023-09-12T05:17:45;98614.44;;;32.13;24.24
40850;BME280;26571;41.610;25.380;2023-09-12T05:20:11;98601.53;;;32.33;23.71
40850;BME280;26571;41.610;25.380;2023-09-12T05:22:36;98599.38;;;32.57;23.80
40850;BME280;26571;41.610;25.380;2023-09-12T05:25:02;98609.50;;;32.79;23.39
40850;BME280;26571;41.610;25.380;2023-09-12T05:27:27;98607.94;;;33.01;23.08
40850;BME280;26571;41.610;25.380;2023-09-12T05:29:52;98611.94;;;33.17;23.03
40850;BME280;26571;41.610;25.380;2023-09-12T05:32:18;98589.41;;;33.11;22.93
40850;BME280;26571;41.610;25.380;2023-09-12T05:34:43;98610.31;;;33.38;22.64
40850;BME280;26571;41.610;25.380;2023-09-12T05:37:10;98610.69;;;33.77;22.57
40850;BME280;26571;41.610;25.380;2023-09-12T05:39:36;98605.63;;;33.92;22.18
40850;BME280;26571;41.610;25.380;2023-09-12T05:42:01;98606.84;;;34.26;22.29
40850;BME280;26571;41.610;25.380;2023-09-12T05:44:26;98608.91;;;34.69;21.92
40850;BME280;26571;41.610;25.380;2023-09-12T05:46:52;98606.03;;;35.09;21.75
40850;BME280;26571;41.610;25.380;2023-09-12T05:49:17;98614.03;;;35.48;20.88
40850;BME280;26571;41.610;25.380;2023-09-12T05:51:43;98608.44;;;35.83;20.28
40850;BME280;26571;41.610;25.380;2023-09-12T05:54:09;98602.97;;;35.83;20.05
40850;BME280;26571;41.610;25.380;2023-09-12T05:56:35;98591.56;;;35.72;20.50
40850;BME280;26571;41.610;25.380;2023-09-12T05:59:00;98606.97;;;35.94;20.21
40850;BME280;26571;41.610;25.380;2023-09-12T06:01:25;98593.59;;;35.84;20.74
40850;BME280;26571;41.610;25.380;2023-09-12T06:03:51;98598.91;;;35.98;20.21
40850;BME280;26571;41.610;25.380;2023-09-12T06:06:16;98592.00;;;36.21;20.16
40850;BME280;26571;41.610;25.380;2023-09-12T06:08:41;98602.50;;;36.49;19.84
40850;BME280;26571;41.610;25.380;2023-09-12T06:11:07;98603.66;;;36.39;19.65
40850;BME280;26571;41.610;25.380;2023-09-12T06:13:32;98602.44;;;35.98;20.26
40850;BME280;26571;41.610;25.380;2023-09-12T06:15:59;98603.06;;;36.04;20.30
40850;BME280;26571;41.610;25.380;2023-09-12T06:18:24;98603.84;;;36.05;20.17
40850;BME280;26571;41.610;25.380;2023-09-12T06:20:52;98588.75;;;35.34;20.63
40850;BME280;26571;41.610;25.380;2023-09-12T06:23:17;98600.66;;;35.30;20.86
40850;BME280;26571;41.610;25.380;2023-09-12T06:25:42;98603.63;;;35.16;21.17
40850;BME280;26571;41.610;25.380;2023-09-12T06:28:09;98607.94;;;34.82;21.46
40850;BME280;26571;41.610;25.380;2023-09-12T06:30:35;98597.97;;;34.69;21.56
40850;BME280;26571;41.610;25.380;2023-09-12T06:33:00;98611.78;;;34.64;21.66
40850;BME280;26571;41.610;25.380;2023-09-12T06:35:26;98613.06;;;34.58;21.99
40850;BME280;26571;41.610;25.380;2023-09-12T06:37:51;98592.16;;;33.96;22.52
40850;BME280;26571;41.610;25.380;2023-09-12T06:40:17;98624.50;;;33.80;22.33
40850;BME280;26571;41.610;25.380;2023-09-12T06:42:42;98607.63;;;33.25;22.79
40850;BME280;26571;41.610;25.380;2023-09-12T06:45:08;98614.16;;;32.79;23.41
40850;BME280;26571;41.610;25.380;2023-09-12T06:47:34;98619.50;;;32.48;23.99
40850;BME280;26571;41.610;25.380;2023-09-12T06:49:59;98603.25;;;32.15;24.32
40850;BME280;26571;41.610;25.380;2023-09-12T06:52:25;98623.06;;;31.74;24.86
40850;BME280;26571;41.610;25.380;2023-09-12T06:54:50;98616.78;;;31.60;24.86
40850;BME280;26571;41.610;25.380;2023-09-12T06:57:16;98607.56;;;31.42;25.68
40850;BME280;26571;41.610;25.380;2023-09-12T06:59:41;98608.41;;;31.24;25.74
40850;BME280;26571;41.610;25.380;2023-09-12T07:02:06;98611.22;;;30.62;26.34
40850;BME280;26571;41.610;25.380;2023-09-12T07:04:32;98613.50;;;30.07;27.87
40850;BME280;26571;41.610;25.380;2023-09-12T07:06:58;98614.91;;;29.80;27.43
40850;BME280;26571;41.610;25.380;2023-09-12T07:09:23;98587.91;;;29.36;28.23
40850;BME280;26571;41.610;25.380;2023-09-12T07:11:49;98606.72;;;29.22;28.83
40850;BME280;26571;41.610;25.380;2023-09-12T07:14:14;98622.22;;;29.17;28.89
40850;BME280;26571;41.610;25.380;2023-09-12T07:16:40;98624.34;;;28.80;30.17
40850;BME280;26571;41.610;25.380;2023-09-12T07:19:06;98620.16;;;28.54;29.74
40850;BME280;26571;41.610;25.380;2023-09-12T07:21:32;98624.56;;;28.29;29.93
40850;BME280;26571;41.610;25.380;2023-09-12T07:23:57;98618.19;;;28.05;30.81
40850;BME280;26571;41.610;25.380;2023-09-12T07:26:23;98626.31;;;28.05;31.44
40850;BME280;26571;41.610;25.380;2023-09-12T07:28:48;98591.13;;;27.90;30.62
40850;BME280;26571;41.610;25.380;2023-09-12T07:31:14;98595.22;;;27.87;30.62
40850;BME280;26571;41.610;25.380;2023-09-12T07:33:39;98605.22;;;27.97;31.08
40850;BME280;26571;41.610;25.380;2023-09-12T07:36:06;98602.56;;;27.61;30.90
40850;BME280;26571;41.610;25.380;2023-09-12T07:38:32;98602.03;;;27.49;31.33
40850;BME280;26571;41.610;25.380;2023-09-12T07:40:58;98617.72;;;27.72;32.30
40850;BME280;26571;41.610;25.380;2023-09-12T07:43:25;98605.25;;;27.87;32.98
40850;BME280;26571;41.610;25.380;2023-09-12T07:45:55;98617.94;;;27.96;31.48
40850;BME280;26571;41.610;25.380;2023-09-12T07:48:20;98613.81;;;28.09;31.25
40850;BME280;26571;41.610;25.380;2023-09-12T07:50:46;98620.28;;;28.18;31.69
40850;BME280;26571;41.610;25.380;2023-09-12T07:53:11;98615.41;;;28.25;31.30
40850;BME280;26571;41.610;25.380;2023-09-12T07:55:37;98621.59;;;28.31;31.43
40850;BME280;26571;41.610;25.380;2023-09-12T07:58:11;98618.09;;;28.36;32.54
40850;BME280;26571;41.610;25.380;2023-09-12T08:00:37;98611.00;;;28.45;32.58
40850;BME280;26571;41.610;25.380;2023-09-12T08:03:03;98607.69;;;28.53;31.54
40850;BME280;26571;41.610;25.380;2023-09-12T08:05:28;98601.53;;;28.42;31.57
40850;BME280;26571;41.610;25.380;2023-09-12T08:07:54;98607.66;;;28.58;31.87
40850;BME280;26571;41.610;25.380;2023-09-12T08:10:20;98606.00;;;28.67;31.93
40850;BME280;26571;41.610;25.380;2023-09-12T08:12:45;98603.50;;;28.76;31.78
40850;BME280;26571;41.610;25.380;2023-09-12T08:15:11;98605.41;;;28.75;31.62
40850;BME280;26571;41.610;25.380;2023-09-12T08:17:38;98596.56;;;28.59;33.35
40850;BME280;26571;41.610;25.380;2023-09-12T08:20:04;98597.66;;;28.53;32.80
40850;BME280;26571;41.610;25.380;2023-09-12T08:22:30;98589.22;;;28.65;33.24
40850;BME280;26571;41.610;25.380;2023-09-12T08:24:55;98593.59;;;28.61;33.28
40850;BME280;26571;41.610;25.380;2023-09-12T08:27:21;98596.00;;;28.63;32.16
40850;BME280;26571;41.610;25.380;2023-09-12T08:29:46;98591.41;;;28.58;32.03
40850;BME280;26571;41.610;25.380;2023-09-12T08:32:13;98590.44;;;28.39;32.41
40850;BME280;26571;41.610;25.380;2023-09-12T08:34:39;98587.94;;;28.52;32.24
40850;BME280;26571;41.610;25.380;2023-09-12T08:37:04;98592.97;;;28.74;32.36
40850;BME280;26571;41.610;25.380;2023-09-12T08:39:41;98584.72;;;28.90;32.35
40850;BME280;26571;41.610;25.380;2023-09-12T08:42:14;98581.97;;;29.00;32.42
40850;BME280;26571;41.610;25.380;2023-09-12T08:44:41;98584.69;;;29.00;32.09
40850;BME280;26571;41.610;25.380;2023-09-12T08:47:08;98558.44;;;28.95;31.38
40850;BME280;26571;41.610;25.380;2023-09-12T08:49:35;98580.69;;;29.21;32.49
40850;BME280;26571;41.610;25.380;2023-09-12T08:52:06;98583.28;;;29.36;32.38
40850;BME280;26571;41.610;25.380;2023-09-12T08:54:32;98573.38;;;29.51;31.00
40850;BME280;26571;41.610;25.380;2023-09-12T08:56:59;98571.81;;;29.45;30.49
40850;BME280;26571;41.610;25.380;2023-09-12T08:59:27;98581.53;;;29.51;30.38
40850;BME280;26571;41.610;25.380;2023-09-12T09:01:53;98556.41;;;29.40;31.35
40850;BME280;26571;41.610;25.380;2023-09-12T09:04:21;98558.81;;;29.42;32.65
40850;BME280;26571;41.610;25.380;2023-09-12T09:06:49;98544.94;;;29.19;30.69
40850;BME280;26571;41.610;25.380;2023-09-12T09:09:15;98574.09;;;29.32;31.09
40850;BME280;26571;41.610;25.380;2023-09-12T09:11:41;98569.75;;;29.31;32.20
40850;BME280;26571;41.610;25.380;2023-09-12T09:14:06;98572.38;;;29.13;31.16
40850;BME280;26571;41.610;25.380;2023-09-12T09:16:31;98566.13;;;29.12;32.70
40850;BME280;26571;41.610;25.380;2023-09-12T09:19:02;98563.69;;;29.16;33.10
40850;BME280;26571;41.610;25.380;2023-09-12T09:21:32;98567.19;;;29.16;31.96
40850;BME280;26571;41.610;25.380;2023-09-12T09:24:04;98558.66;;;29.28;31.61
40850;BME280;26571;41.610;25.380;2023-09-12T09:26:43;98561.44;;;29.23;32.54
40850;BME280;26571;41.610;25.380;2023-09-12T09:29:13;98550.16;;;29.40;32.89
40850;BME280;26571;41.610;25.380;2023-09-12T09:31:44;98543.72;;;29.65;31.42
40850;BME280;26571;41.610;25.380;2023-09-12T09:36:41;98552.00;;;29.73;31.18
40850;BME280;26571;41.610;25.380;2023-09-12T09:39:07;98545.25;;;29.71;30.95
40850;BME280;26571;41.610;25.380;2023-09-12T09:41:33;98540.00;;;29.79;32.00
40850;BME280;26571;41.610;25.380;2023-09-12T09:43:59;98538.22;;;29.94;31.86
40850;BME280;26571;41.610;25.380;2023-09-12T09:46:25;98514.13;;;29.87;30.88
40850;BME280;26571;41.610;25.380;2023-09-12T09:48:51;98461.84;;;29.57;31.17
40850;BME280;26571;41.610;25.380;2023-09-12T09:51:17;98535.88;;;30.30;31.58
40850;BME280;26571;41.610;25.380;2023-09-12T09:53:42;98534.69;;;30.12;30.08
40850;BME280;26571;41.610;25.380;2023-09-12T09:56:14;98525.84;;;29.82;30.00
40850;BME280;26571;41.610;25.380;2023-09-12T09:58:52;98529.03;;;29.90;30.45
40850;BME280;26571;41.610;25.380;2023-09-12T10:01:19;98527.78;;;30.01;30.15
40850;BME280;26571;41.610;25.380;2023-09-12T10:03:46;98526.75;;;29.97;30.81
40850;BME280;26571;41.610;25.380;2023-09-12T10:06:13;98517.38;;;30.08;32.52
40850;BME280;26571;41.610;25.380;2023-09-12T10:08:40;98513.47;;;30.19;29.67
40850;BME280;26571;41.610;25.380;2023-09-12T10:11:08;98519.91;;;30.23;30.28
40850;BME280;26571;41.610;25.380;2023-09-12T10:13:35;98515.53;;;30.03;30.14
40850;BME280;26571;41.610;25.380;2023-09-12T10:16:02;98516.59;;;29.83;30.65
40850;BME280;26571;41.610;25.380;2023-09-12T10:18:35;98502.59;;;29.76;31.82
40850;BME280;26571;41.610;25.380;2023-09-12T10:21:09;98517.13;;;29.85;30.67
40850;BME280;26571;41.610;25.380;2023-09-12T10:23:44;98502.72;;;29.66;30.01
40850;BME280;26571;41.610;25.380;2023-09-12T10:26:14;98512.47;;;29.67;29.94
40850;BME280;26571;41.610;25.380;2023-09-12T10:28:43;98506.66;;;29.50;31.03
40850;BME280;26571;41.610;25.380;2023-09-12T10:31:11;98511.94;;;29.65;31.04
40850;BME280;26571;41.610;25.380;2023-09-12T10:33:37;98503.94;;;29.79;31.91
40850;BME280;26571;41.610;25.380;2023-09-12T10:36:03;98504.00;;;29.93;31.27
40850;BME280;26571;41.610;25.380;2023-09-12T10:38:32;98500.41;;;29.97;31.61
40850;BME280;26571;41.610;25.380;2023-09-12T10:41:00;98501.22;;;29.98;32.85
40850;BME280;26571;41.610;25.380;2023-09-12T10:43:26;98495.22;;;30.01;31.48
40850;BME280;26571;41.610;25.380;2023-09-12T10:45:53;98475.78;;;29.94;30.06
40850;BME280;26571;41.610;25.380;2023-09-12T10:48:19;98497.69;;;29.97;30.58
40850;BME280;26571;41.610;25.380;2023-09-12T10:50:46;98488.31;;;29.90;29.93
40850;BME280;26571;41.610;25.380;2023-09-12T10:53:13;98489.13;;;29.66;29.79
40850;BME280;26571;41.610;25.380;2023-09-12T10:55:39;98487.72;;;29.45;30.36
40850;BME280;26571;41.610;25.380;2023-09-12T10:58:08;98481.16;;;29.51;30.59
40850;BME280;26571;41.610;25.380;2023-09-12T11:00:34;98475.94;;;29.59;30.54
40850;BME280;26571;41.610;25.380;2023-09-12T11:05:54;98475.41;;;29.57;31.06
40850;BME280;26571;41.610;25.380;2023-09-12T11:08:20;98447.00;;;29.50;30.46
40850;BME280;26571;41.610;25.380;2023-09-12T11:11:20;98474.03;;;29.60;30.25
40850;BME280;26571;41.610;25.380;2023-09-12T11:13:46;98463.50;;;29.29;30.45
40850;BME280;26571;41.610;25.380;2023-09-12T11:16:16;98461.84;;;29.28;30.77
40850;BME280;26571;41.610;25.380;2023-09-12T11:21:37;98445.13;;;29.21;30.30
40850;BME280;26571;41.610;25.380;2023-09-12T11:24:02;98448.94;;;29.20;29.88
40850;BME280;26571;41.610;25.380;2023-09-12T11:26:29;98451.66;;;29.20;30.10
40850;BME280;26571;41.610;25.380;2023-09-12T11:28:55;98454.94;;;29.17;30.08
40850;BME280;26571;41.610;25.380;2023-09-12T11:31:26;98436.63;;;29.04;30.33
40850;BME280;26571;41.610;25.380;2023-09-12T11:33:53;98413.47;;;28.88;30.28
40850;BME280;26571;41.610;25.380;2023-09-12T11:36:19;98444.19;;;29.07;29.90
40850;BME280;26571;41.610;25.380;2023-09-12T11:38:49;98441.53;;;29.02;30.20
40850;BME280;26571;41.610;25.380;2023-09-12T11:41:40;98446.31;;;28.81;30.00
40850;BME280;26571;41.610;25.380;2023-09-12T11:44:06;98443.84;;;28.84;30.41
40850;BME280;26571;41.610;25.380;2023-09-12T11:46:32;98431.31;;;28.89;30.68
40850;BME280;26571;41.610;25.380;2023-09-12T11:49:01;98418.16;;;28.77;30.40
40850;BME280;26571;41.610;25.380;2023-09-12T11:51:26;98437.88;;;28.82;30.75
40850;BME280;26571;41.610;25.380;2023-09-12T11:53:52;98441.16;;;28.84;30.70
40850;BME280;26571;41.610;25.380;2023-09-12T11:56:18;98430.19;;;28.66;30.78
40850;BME280;26571;41.610;25.380;2023-09-12T11:58:44;98434.06;;;28.59;30.86
40850;BME280;26571;41.610;25.380;2023-09-12T12:01:12;98431.84;;;28.62;30.72
40850;BME280;26571;41.610;25.380;2023-09-12T12:03:38;98304.78;;;28.02;32.47
40850;BME280;26571;41.610;25.380;2023-09-12T12:06:04;98422.69;;;28.87;30.58
40850;BME280;26571;41.610;25.380;2023-09-12T12:08:31;98434.72;;;28.75;30.45
40850;BME280;26571;41.610;25.380;2023-09-12T12:10:57;98416.25;;;28.77;30.91
40850;BME280;26571;41.610;25.380;2023-09-12T12:13:23;98424.28;;;28.58;31.03
40850;BME280;26571;41.610;25.380;2023-09-12T12:15:49;98337.00;;;28.32;30.95
40850;BME280;26571;41.610;25.380;2023-09-12T12:18:15;98408.72;;;28.74;31.43
40850;BME280;26571;41.610;25.380;2023-09-12T12:20:41;98403.88;;;28.71;31.09
40850;BME280;26571;41.610;25.380;2023-09-12T12:23:07;98395.19;;;28.69;31.35
40850;BME280;26571;41.610;25.380;2023-09-12T12:25:33;98391.97;;;28.67;31.17
40850;BME280;26571;41.610;25.380;2023-09-12T12:27:59;98392.22;;;28.71;31.22
40850;BME280;26571;41.610;25.380;2023-09-12T12:30:29;98380.59;;;28.70;31.04
40850;BME280;26571;41.610;25.380;2023-09-12T12:32:55;98384.03;;;28.76;31.44
40850;BME280;26571;41.610;25.380;2023-09-12T12:35:22;98396.16;;;28.83;31.29
40850;BME280;26571;41.610;25.380;2023-09-12T12:37:52;98392.63;;;28.83;31.66
40850;BME280;26571;41.610;25.380;2023-09-12T12:40:19;98391.88;;;28.77;30.94
40850;BME280;26571;41.610;25.380;2023-09-12T12:42:45;98383.81;;;28.72;31.49
40850;BME280;26571;41.610;25.380;2023-09-12T12:45:32;98381.94;;;28.68;31.40
40850;BME280;26571;41.610;25.380;2023-09-12T12:47:59;98394.63;;;28.72;31.58
40850;BME280;26571;41.610;25.380;2023-09-12T12:50:25;98385.50;;;28.63;31.61
40850;BME280;26571;41.610;25.380;2023-09-12T12:52:50;98392.59;;;28.59;31.67
40850;BME280;26571;41.610;25.380;2023-09-12T12:55:16;98380.19;;;28.53;32.36